Overview Statistics Trail Chart Weather Telemetry Raw packets
 

This is the latest recevied weather packets stored in our database for station/object PU2XNA. If no packets are shown the sender has not sent any weather packets the latest 10 day(s).

<< 11 12 13 14 15 16 17 >>
Time Temp. Humidity Pressure Rain* Wind** Luminosity Snow
1788379219 26.67° C 73% 1014.3 hPa - - - -
1788378302 27.22° C 73% 1014.2 hPa - - - -
1788377402 27.22° C 73% 1014.1 hPa - - - -
1788376503 27.78° C 73% 1014 hPa - - - -
1788375603 27.78° C 73% 1013.9 hPa - - - -
1788374704 27.78° C 73% 1013.8 hPa - - - -
1788373802 28.33° C 73% 1013.8 hPa - - - -
1788372903 28.33° C 73% 1013.8 hPa - - - -
1788372002 28.89° C 73% 1013.8 hPa - - - -
1788371102 28.33° C 73% 1013.7 hPa - - - -
1788370203 28.33° C 73% 1013.9 hPa - - - -
1788369302 28.89° C 73% 1014.1 hPa - - - -
1788368403 30° C 73% 1014.2 hPa - - - -
1788367502 29.44° C 73% 1014.4 hPa - - - -
1788366602 30° C 73% 1014.6 hPa - - - -
1788365703 30° C 73% 1014.8 hPa - - - -
1788364802 30° C 73% 1015 hPa - - - -
1788363902 29.44° C 73% 1015 hPa - - - -
1788363095 30° C 73% 1015.2 hPa - - - -
1788264904 20° C 87% 1012.5 hPa - - - -
1788264025 20° C 87% 1012.3 hPa - - - -
1788263103 20° C 87% 1012.4 hPa - - - -
1788262218 19.44° C 87% 1012 hPa - - - -
1788261302 19.44° C 88% 1011.9 hPa - - - -
1788260402 20° C 86% 1012.2 hPa - - - -

* Rain since midnight (hover to see other rain measurements)
** Current wind speed in m/s (hover to see current wind gust speed)